sensor_id;sensor_type;location;lat;lon;timestamp;P1;durP1;ratioP1;P2;durP2;ratioP2
51358;SDS011;37448;51.588;7.248;2023-07-28T00:01:39;6.60;;;5.53;;
51358;SDS011;37448;51.588;7.248;2023-07-28T00:03:40;6.65;;;5.22;;
51358;SDS011;37448;51.588;7.248;2023-07-28T00:05:40;8.52;;;6.47;;
51358;SDS011;37448;51.588;7.248;2023-07-28T00:07:41;6.05;;;4.72;;
51358;SDS011;37448;51.588;7.248;2023-07-28T00:09:44;6.45;;;5.43;;
51358;SDS011;37448;51.588;7.248;2023-07-28T00:11:45;6.55;;;5.15;;
51358;SDS011;37448;51.588;7.248;2023-07-28T00:13:45;7.57;;;5.82;;
51358;SDS011;37448;51.588;7.248;2023-07-28T00:15:45;7.30;;;5.40;;
51358;SDS011;37448;51.588;7.248;2023-07-28T00:17:46;6.78;;;5.40;;
51358;SDS011;37448;51.588;7.248;2023-07-28T00:19:46;7.53;;;5.88;;
51358;SDS011;37448;51.588;7.248;2023-07-28T00:21:47;12.07;;;6.38;;
51358;SDS011;37448;51.588;7.248;2023-07-28T00:23:48;7.90;;;6.30;;
51358;SDS011;37448;51.588;7.248;2023-07-28T00:25:48;7.28;;;6.18;;
51358;SDS011;37448;51.588;7.248;2023-07-28T00:27:49;12.00;;;7.38;;
51358;SDS011;37448;51.588;7.248;2023-07-28T00:29:49;8.50;;;6.70;;
51358;SDS011;37448;51.588;7.248;2023-07-28T00:31:49;9.25;;;6.78;;
51358;SDS011;37448;51.588;7.248;2023-07-28T00:33:50;8.57;;;6.80;;
51358;SDS011;37448;51.588;7.248;2023-07-28T00:35:50;9.27;;;7.25;;
51358;SDS011;37448;51.588;7.248;2023-07-28T00:37:51;8.05;;;5.85;;
51358;SDS011;37448;51.588;7.248;2023-07-28T00:39:51;9.90;;;7.28;;
51358;SDS011;37448;51.588;7.248;2023-07-28T00:41:51;8.48;;;5.80;;
51358;SDS011;37448;51.588;7.248;2023-07-28T00:43:52;7.32;;;6.03;;
51358;SDS011;37448;51.588;7.248;2023-07-28T00:45:53;7.28;;;5.82;;
51358;SDS011;37448;51.588;7.248;2023-07-28T00:47:54;7.57;;;6.13;;
51358;SDS011;37448;51.588;7.248;2023-07-28T00:49:55;7.47;;;5.40;;
51358;SDS011;37448;51.588;7.248;2023-07-28T00:51:55;7.82;;;5.55;;
51358;SDS011;37448;51.588;7.248;2023-07-28T00:53:56;9.50;;;5.13;;
51358;SDS011;37448;51.588;7.248;2023-07-28T00:55:59;6.63;;;4.78;;
51358;SDS011;37448;51.588;7.248;2023-07-28T00:58:01;8.82;;;5.47;;
51358;SDS011;37448;51.588;7.248;2023-07-28T01:00:01;6.68;;;4.57;;
51358;SDS011;37448;51.588;7.248;2023-07-28T01:02:02;7.70;;;4.78;;
51358;SDS011;37448;51.588;7.248;2023-07-28T01:04:03;6.47;;;4.40;;
51358;SDS011;37448;51.588;7.248;2023-07-28T01:08:27;6.53;;;5.05;;
51358;SDS011;37448;51.588;7.248;2023-07-28T01:10:30;7.63;;;3.80;;
51358;SDS011;37448;51.588;7.248;2023-07-28T01:12:32;5.20;;;3.72;;
51358;SDS011;37448;51.588;7.248;2023-07-28T01:14:32;4.75;;;3.70;;
51358;SDS011;37448;51.588;7.248;2023-07-28T01:16:33;5.90;;;4.05;;
51358;SDS011;37448;51.588;7.248;2023-07-28T01:18:34;5.78;;;4.47;;
51358;SDS011;37448;51.588;7.248;2023-07-28T01:20:35;7.15;;;4.20;;
51358;SDS011;37448;51.588;7.248;2023-07-28T01:25:26;6.90;;;4.25;;
51358;SDS011;37448;51.588;7.248;2023-07-28T01:27:33;4.90;;;3.90;;
51358;SDS011;37448;51.588;7.248;2023-07-28T01:29:35;5.68;;;4.00;;
51358;SDS011;37448;51.588;7.248;2023-07-28T01:31:36;4.95;;;4.20;;
51358;SDS011;37448;51.588;7.248;2023-07-28T01:33:37;6.10;;;4.65;;
51358;SDS011;37448;51.588;7.248;2023-07-28T01:35:37;7.30;;;4.47;;
51358;SDS011;37448;51.588;7.248;2023-07-28T01:37:41;6.43;;;4.57;;
51358;SDS011;37448;51.588;7.248;2023-07-28T01:39:42;6.50;;;4.60;;
51358;SDS011;37448;51.588;7.248;2023-07-28T01:41:42;6.53;;;4.85;;
51358;SDS011;37448;51.588;7.248;2023-07-28T01:43:44;6.22;;;5.10;;
51358;SDS011;37448;51.588;7.248;2023-07-28T01:45:44;6.35;;;4.70;;
51358;SDS011;37448;51.588;7.248;2023-07-28T01:47:45;5.43;;;4.65;;
51358;SDS011;37448;51.588;7.248;2023-07-28T01:49:45;7.50;;;4.95;;
51358;SDS011;37448;51.588;7.248;2023-07-28T01:51:46;7.03;;;4.72;;
51358;SDS011;37448;51.588;7.248;2023-07-28T01:53:46;7.95;;;4.72;;
51358;SDS011;37448;51.588;7.248;2023-07-28T01:55:46;6.00;;;4.70;;
51358;SDS011;37448;51.588;7.248;2023-07-28T01:57:53;8.15;;;5.25;;
51358;SDS011;37448;51.588;7.248;2023-07-28T01:59:56;6.95;;;5.35;;
51358;SDS011;37448;51.588;7.248;2023-07-28T02:01:56;8.88;;;5.75;;
51358;SDS011;37448;51.588;7.248;2023-07-28T02:03:58;8.60;;;5.82;;
51358;SDS011;37448;51.588;7.248;2023-07-28T02:06:00;7.50;;;5.40;;
51358;SDS011;37448;51.588;7.248;2023-07-28T02:08:01;7.63;;;5.97;;
51358;SDS011;37448;51.588;7.248;2023-07-28T02:10:01;7.30;;;5.68;;
51358;SDS011;37448;51.588;7.248;2023-07-28T02:12:01;10.73;;;6.45;;
51358;SDS011;37448;51.588;7.248;2023-07-28T02:14:02;7.65;;;5.90;;
51358;SDS011;37448;51.588;7.248;2023-07-28T02:16:02;8.30;;;6.47;;
51358;SDS011;37448;51.588;7.248;2023-07-28T02:18:03;10.57;;;6.63;;
51358;SDS011;37448;51.588;7.248;2023-07-28T02:20:04;9.55;;;6.05;;
51358;SDS011;37448;51.588;7.248;2023-07-28T02:22:05;9.18;;;6.30;;
51358;SDS011;37448;51.588;7.248;2023-07-28T02:24:06;8.30;;;6.40;;
51358;SDS011;37448;51.588;7.248;2023-07-28T02:26:06;9.63;;;6.70;;
51358;SDS011;37448;51.588;7.248;2023-07-28T02:28:08;8.07;;;5.68;;
51358;SDS011;37448;51.588;7.248;2023-07-28T02:30:10;8.55;;;5.72;;
51358;SDS011;37448;51.588;7.248;2023-07-28T02:32:10;8.07;;;6.32;;
51358;SDS011;37448;51.588;7.248;2023-07-28T02:34:11;6.53;;;5.25;;
51358;SDS011;37448;51.588;7.248;2023-07-28T02:36:11;8.63;;;6.43;;
51358;SDS011;37448;51.588;7.248;2023-07-28T02:38:12;6.65;;;5.15;;
51358;SDS011;37448;51.588;7.248;2023-07-28T02:40:12;8.30;;;6.07;;
51358;SDS011;37448;51.588;7.248;2023-07-28T02:42:13;7.50;;;5.78;;
51358;SDS011;37448;51.588;7.248;2023-07-28T02:44:13;8.65;;;5.97;;
51358;SDS011;37448;51.588;7.248;2023-07-28T02:46:13;9.15;;;6.18;;
51358;SDS011;37448;51.588;7.248;2023-07-28T02:48:14;9.40;;;6.32;;
51358;SDS011;37448;51.588;7.248;2023-07-28T02:50:15;8.27;;;6.32;;
51358;SDS011;37448;51.588;7.248;2023-07-28T02:52:16;9.23;;;7.13;;
51358;SDS011;37448;51.588;7.248;2023-07-28T02:54:16;9.88;;;6.80;;
51358;SDS011;37448;51.588;7.248;2023-07-28T02:56:16;9.07;;;6.45;;
51358;SDS011;37448;51.588;7.248;2023-07-28T02:58:18;8.02;;;5.57;;
51358;SDS011;37448;51.588;7.248;2023-07-28T03:00:18;6.82;;;5.45;;
51358;SDS011;37448;51.588;7.248;2023-07-28T03:02:19;7.55;;;5.93;;
51358;SDS011;37448;51.588;7.248;2023-07-28T03:04:19;7.72;;;6.22;;
51358;SDS011;37448;51.588;7.248;2023-07-28T03:06:45;7.32;;;5.82;;
51358;SDS011;37448;51.588;7.248;2023-07-28T03:08:47;7.75;;;6.00;;
51358;SDS011;37448;51.588;7.248;2023-07-28T03:11:02;8.35;;;6.68;;
51358;SDS011;37448;51.588;7.248;2023-07-28T03:13:03;8.30;;;5.75;;
51358;SDS011;37448;51.588;7.248;2023-07-28T03:15:03;9.40;;;6.55;;
51358;SDS011;37448;51.588;7.248;2023-07-28T03:17:04;9.55;;;6.32;;
51358;SDS011;37448;51.588;7.248;2023-07-28T03:19:04;9.55;;;6.90;;
51358;SDS011;37448;51.588;7.248;2023-07-28T03:21:05;12.85;;;7.45;;
51358;SDS011;37448;51.588;7.248;2023-07-28T03:23:06;10.00;;;7.10;;
51358;SDS011;37448;51.588;7.248;2023-07-28T03:25:06;9.88;;;7.10;;
51358;SDS011;37448;51.588;7.248;2023-07-28T03:27:07;8.73;;;6.95;;
51358;SDS011;37448;51.588;7.248;2023-07-28T03:29:08;8.63;;;6.55;;
51358;SDS011;37448;51.588;7.248;2023-07-28T03:31:09;13.75;;;7.90;;
51358;SDS011;37448;51.588;7.248;2023-07-28T03:33:09;8.98;;;6.97;;
51358;SDS011;37448;51.588;7.248;2023-07-28T03:35:09;9.93;;;6.63;;
51358;SDS011;37448;51.588;7.248;2023-07-28T03:37:15;9.65;;;6.35;;
51358;SDS011;37448;51.588;7.248;2023-07-28T03:39:17;9.05;;;6.20;;
51358;SDS011;37448;51.588;7.248;2023-07-28T03:41:20;9.15;;;6.63;;
51358;SDS011;37448;51.588;7.248;2023-07-28T03:43:21;11.20;;;6.75;;
51358;SDS011;37448;51.588;7.248;2023-07-28T03:45:22;8.52;;;6.13;;
51358;SDS011;37448;51.588;7.248;2023-07-28T03:47:22;11.30;;;6.68;;
51358;SDS011;37448;51.588;7.248;2023-07-28T03:49:23;9.32;;;6.15;;
51358;SDS011;37448;51.588;7.248;2023-07-28T03:51:23;11.40;;;6.78;;
51358;SDS011;37448;51.588;7.248;2023-07-28T03:53:23;10.48;;;6.35;;
51358;SDS011;37448;51.588;7.248;2023-07-28T03:55:24;9.80;;;6.07;;
51358;SDS011;37448;51.588;7.248;2023-07-28T03:57:24;8.82;;;6.50;;
51358;SDS011;37448;51.588;7.248;2023-07-28T03:59:25;8.63;;;6.00;;
51358;SDS011;37448;51.588;7.248;2023-07-28T04:01:25;9.18;;;6.03;;
51358;SDS011;37448;51.588;7.248;2023-07-28T04:03:25;7.15;;;5.95;;
51358;SDS011;37448;51.588;7.248;2023-07-28T04:05:26;7.97;;;5.55;;
51358;SDS011;37448;51.588;7.248;2023-07-28T04:07:26;9.80;;;6.57;;
51358;SDS011;37448;51.588;7.248;2023-07-28T04:09:27;9.00;;;5.47;;
51358;SDS011;37448;51.588;7.248;2023-07-28T04:11:27;10.20;;;7.38;;
51358;SDS011;37448;51.588;7.248;2023-07-28T04:13:28;8.80;;;6.45;;
51358;SDS011;37448;51.588;7.248;2023-07-28T04:15:28;12.07;;;7.35;;
51358;SDS011;37448;51.588;7.248;2023-07-28T04:17:29;9.90;;;5.90;;
51358;SDS011;37448;51.588;7.248;2023-07-28T04:19:29;10.02;;;6.75;;
51358;SDS011;37448;51.588;7.248;2023-07-28T04:21:30;10.30;;;6.72;;
51358;SDS011;37448;51.588;7.248;2023-07-28T04:23:30;10.95;;;6.85;;
51358;SDS011;37448;51.588;7.248;2023-07-28T04:25:31;7.55;;;5.90;;
51358;SDS011;37448;51.588;7.248;2023-07-28T04:27:31;8.30;;;5.80;;
51358;SDS011;37448;51.588;7.248;2023-07-28T04:29:34;7.72;;;5.47;;
51358;SDS011;37448;51.588;7.248;2023-07-28T04:31:35;8.50;;;5.43;;
51358;SDS011;37448;51.588;7.248;2023-07-28T04:33:41;7.47;;;5.07;;
51358;SDS011;37448;51.588;7.248;2023-07-28T04:35:42;7.30;;;4.63;;
51358;SDS011;37448;51.588;7.248;2023-07-28T04:37:52;8.07;;;5.22;;
51358;SDS011;37448;51.588;7.248;2023-07-28T04:40:02;7.07;;;5.15;;
51358;SDS011;37448;51.588;7.248;2023-07-28T04:42:08;8.23;;;5.32;;
51358;SDS011;37448;51.588;7.248;2023-07-28T04:44:13;8.57;;;5.60;;
51358;SDS011;37448;51.588;7.248;2023-07-28T04:46:16;6.25;;;4.97;;
51358;SDS011;37448;51.588;7.248;2023-07-28T04:48:22;10.10;;;5.47;;
51358;SDS011;37448;51.588;7.248;2023-07-28T04:50:22;6.95;;;5.25;;
51358;SDS011;37448;51.588;7.248;2023-07-28T04:52:41;6.95;;;5.82;;
51358;SDS011;37448;51.588;7.248;2023-07-28T04:54:58;6.82;;;4.82;;
51358;SDS011;37448;51.588;7.248;2023-07-28T04:56:58;6.07;;;4.95;;
51358;SDS011;37448;51.588;7.248;2023-07-28T04:59:05;6.38;;;4.38;;
51358;SDS011;37448;51.588;7.248;2023-07-28T05:01:06;7.22;;;4.80;;
51358;SDS011;37448;51.588;7.248;2023-07-28T05:03:09;6.18;;;4.65;;
51358;SDS011;37448;51.588;7.248;2023-07-28T05:05:16;6.68;;;4.88;;
51358;SDS011;37448;51.588;7.248;2023-07-28T05:07:17;10.10;;;5.00;;
51358;SDS011;37448;51.588;7.248;2023-07-28T05:09:17;8.10;;;4.90;;
51358;SDS011;37448;51.588;7.248;2023-07-28T05:11:18;7.47;;;4.97;;
51358;SDS011;37448;51.588;7.248;2023-07-28T05:13:19;8.13;;;6.05;;
51358;SDS011;37448;51.588;7.248;2023-07-28T05:15:27;9.75;;;6.43;;
51358;SDS011;37448;51.588;7.248;2023-07-28T05:17:27;11.38;;;6.30;;
51358;SDS011;37448;51.588;7.248;2023-07-28T05:19:46;9.68;;;7.28;;
51358;SDS011;37448;51.588;7.248;2023-07-28T05:22:10;10.73;;;6.35;;
51358;SDS011;37448;51.588;7.248;2023-07-28T05:24:19;10.77;;;7.13;;
51358;SDS011;37448;51.588;7.248;2023-07-28T05:26:19;10.60;;;6.72;;
51358;SDS011;37448;51.588;7.248;2023-07-28T05:28:20;8.80;;;6.10;;
51358;SDS011;37448;51.588;7.248;2023-07-28T05:30:24;9.65;;;6.32;;
51358;SDS011;37448;51.588;7.248;2023-07-28T05:32:24;9.27;;;6.85;;
51358;SDS011;37448;51.588;7.248;2023-07-28T05:34:43;11.13;;;7.07;;
51358;SDS011;37448;51.588;7.248;2023-07-28T05:36:44;12.13;;;7.15;;
51358;SDS011;37448;51.588;7.248;2023-07-28T05:38:44;14.02;;;7.90;;
51358;SDS011;37448;51.588;7.248;2023-07-28T05:40:45;11.40;;;7.35;;
51358;SDS011;37448;51.588;7.248;2023-07-28T05:42:45;11.40;;;6.90;;
51358;SDS011;37448;51.588;7.248;2023-07-28T05:44:46;13.70;;;7.80;;
51358;SDS011;37448;51.588;7.248;2023-07-28T05:46:47;12.90;;;7.28;;
51358;SDS011;37448;51.588;7.248;2023-07-28T05:48:49;12.50;;;7.13;;
51358;SDS011;37448;51.588;7.248;2023-07-28T05:50:49;10.48;;;6.93;;
51358;SDS011;37448;51.588;7.248;2023-07-28T05:52:51;11.05;;;7.32;;
51358;SDS011;37448;51.588;7.248;2023-07-28T05:54:52;7.97;;;5.93;;
51358;SDS011;37448;51.588;7.248;2023-07-28T05:56:52;10.20;;;6.53;;
51358;SDS011;37448;51.588;7.248;2023-07-28T05:58:52;8.30;;;5.88;;
51358;SDS011;37448;51.588;7.248;2023-07-28T06:00:53;8.65;;;4.82;;
51358;SDS011;37448;51.588;7.248;2023-07-28T06:03:19;7.55;;;5.13;;
51358;SDS011;37448;51.588;7.248;2023-07-28T06:05:29;7.40;;;4.88;;
51358;SDS011;37448;51.588;7.248;2023-07-28T06:07:30;6.75;;;4.93;;
51358;SDS011;37448;51.588;7.248;2023-07-28T06:09:30;7.35;;;4.53;;
51358;SDS011;37448;51.588;7.248;2023-07-28T06:11:31;7.28;;;4.15;;
51358;SDS011;37448;51.588;7.248;2023-07-28T06:13:32;5.38;;;3.92;;
51358;SDS011;37448;51.588;7.248;2023-07-28T06:15:32;5.55;;;3.65;;
51358;SDS011;37448;51.588;7.248;2023-07-28T06:17:35;5.85;;;3.70;;
51358;SDS011;37448;51.588;7.248;2023-07-28T06:19:36;7.13;;;4.28;;
51358;SDS011;37448;51.588;7.248;2023-07-28T06:21:36;6.03;;;3.88;;
51358;SDS011;37448;51.588;7.248;2023-07-28T06:23:37;5.93;;;3.80;;
51358;SDS011;37448;51.588;7.248;2023-07-28T06:25:37;5.82;;;3.83;;
51358;SDS011;37448;51.588;7.248;2023-07-28T06:27:43;5.78;;;3.75;;
51358;SDS011;37448;51.588;7.248;2023-07-28T06:29:44;5.32;;;3.78;;
51358;SDS011;37448;51.588;7.248;2023-07-28T06:31:45;5.03;;;3.33;;
51358;SDS011;37448;51.588;7.248;2023-07-28T06:33:46;5.53;;;3.97;;
51358;SDS011;37448;51.588;7.248;2023-07-28T06:35:47;5.10;;;3.45;;
51358;SDS011;37448;51.588;7.248;2023-07-28T06:37:47;8.75;;;4.22;;
51358;SDS011;37448;51.588;7.248;2023-07-28T06:39:48;5.45;;;3.95;;
51358;SDS011;37448;51.588;7.248;2023-07-28T06:41:49;9.02;;;3.97;;
51358;SDS011;37448;51.588;7.248;2023-07-28T06:43:50;6.28;;;4.20;;
51358;SDS011;37448;51.588;7.248;2023-07-28T06:45:54;8.02;;;4.57;;
51358;SDS011;37448;51.588;7.248;2023-07-28T06:47:55;8.43;;;4.18;;
51358;SDS011;37448;51.588;7.248;2023-07-28T06:49:56;5.63;;;3.95;;
51358;SDS011;37448;51.588;7.248;2023-07-28T06:51:56;8.60;;;4.20;;
51358;SDS011;37448;51.588;7.248;2023-07-28T06:53:56;6.22;;;4.38;;
51358;SDS011;37448;51.588;7.248;2023-07-28T06:55:58;6.15;;;3.75;;
51358;SDS011;37448;51.588;7.248;2023-07-28T06:57:58;6.35;;;4.18;;
51358;SDS011;37448;51.588;7.248;2023-07-28T06:59:58;5.75;;;4.28;;
51358;SDS011;37448;51.588;7.248;2023-07-28T07:02:00;6.85;;;4.50;;
51358;SDS011;37448;51.588;7.248;2023-07-28T07:04:00;7.80;;;4.95;;
51358;SDS011;37448;51.588;7.248;2023-07-28T07:06:01;6.25;;;4.65;;
51358;SDS011;37448;51.588;7.248;2023-07-28T07:08:02;8.85;;;5.35;;
51358;SDS011;37448;51.588;7.248;2023-07-28T07:10:03;8.02;;;4.90;;
51358;SDS011;37448;51.588;7.248;2023-07-28T07:12:04;9.15;;;5.40;;
51358;SDS011;37448;51.588;7.248;2023-07-28T07:14:05;10.80;;;5.70;;
51358;SDS011;37448;51.588;7.248;2023-07-28T07:16:12;9.35;;;6.28;;
51358;SDS011;37448;51.588;7.248;2023-07-28T07:18:16;7.95;;;5.15;;
51358;SDS011;37448;51.588;7.248;2023-07-28T07:20:17;8.90;;;5.90;;
51358;SDS011;37448;51.588;7.248;2023-07-28T07:22:17;10.15;;;5.95;;
51358;SDS011;37448;51.588;7.248;2023-07-28T07:24:18;10.02;;;6.85;;
51358;SDS011;37448;51.588;7.248;2023-07-28T07:26:18;12.23;;;7.50;;
51358;SDS011;37448;51.588;7.248;2023-07-28T07:28:19;9.90;;;6.68;;
51358;SDS011;37448;51.588;7.248;2023-07-28T07:30:19;11.15;;;7.03;;
51358;SDS011;37448;51.588;7.248;2023-07-28T07:32:20;10.07;;;7.15;;
51358;SDS011;37448;51.588;7.248;2023-07-28T07:34:20;12.20;;;8.13;;
51358;SDS011;37448;51.588;7.248;2023-07-28T07:36:21;11.73;;;7.75;;
51358;SDS011;37448;51.588;7.248;2023-07-28T07:38:22;14.25;;;8.32;;
51358;SDS011;37448;51.588;7.248;2023-07-28T07:40:22;11.88;;;6.82;;
51358;SDS011;37448;51.588;7.248;2023-07-28T07:42:23;11.60;;;8.35;;
51358;SDS011;37448;51.588;7.248;2023-07-28T07:44:23;11.63;;;8.20;;
51358;SDS011;37448;51.588;7.248;2023-07-28T07:46:24;10.48;;;6.85;;
51358;SDS011;37448;51.588;7.248;2023-07-28T07:48:24;9.63;;;6.82;;
51358;SDS011;37448;51.588;7.248;2023-07-28T07:50:25;9.07;;;6.25;;
51358;SDS011;37448;51.588;7.248;2023-07-28T07:52:25;8.75;;;5.80;;
51358;SDS011;37448;51.588;7.248;2023-07-28T07:54:25;8.88;;;6.10;;
51358;SDS011;37448;51.588;7.248;2023-07-28T07:56:26;9.23;;;6.40;;
51358;SDS011;37448;51.588;7.248;2023-07-28T07:58:27;8.90;;;5.55;;
51358;SDS011;37448;51.588;7.248;2023-07-28T08:00:28;8.90;;;5.63;;
51358;SDS011;37448;51.588;7.248;2023-07-28T08:02:28;8.52;;;6.47;;
51358;SDS011;37448;51.588;7.248;2023-07-28T08:04:29;9.25;;;6.68;;
51358;SDS011;37448;51.588;7.248;2023-07-28T08:06:30;10.10;;;6.40;;
51358;SDS011;37448;51.588;7.248;2023-07-28T08:08:30;9.52;;;6.53;;
51358;SDS011;37448;51.588;7.248;2023-07-28T08:10:31;9.07;;;6.63;;
51358;SDS011;37448;51.588;7.248;2023-07-28T08:12:32;9.68;;;6.60;;
51358;SDS011;37448;51.588;7.248;2023-07-28T08:14:32;9.50;;;6.15;;
51358;SDS011;37448;51.588;7.248;2023-07-28T08:16:33;11.25;;;7.47;;
51358;SDS011;37448;51.588;7.248;2023-07-28T08:18:34;12.50;;;6.80;;
51358;SDS011;37448;51.588;7.248;2023-07-28T08:20:34;9.80;;;6.35;;
51358;SDS011;37448;51.588;7.248;2023-07-28T08:22:35;9.27;;;6.03;;
51358;SDS011;37448;51.588;7.248;2023-07-28T08:24:35;8.23;;;5.93;;
51358;SDS011;37448;51.588;7.248;2023-07-28T08:26:35;8.43;;;6.00;;
51358;SDS011;37448;51.588;7.248;2023-07-28T08:28:36;8.95;;;7.10;;
51358;SDS011;37448;51.588;7.248;2023-07-28T08:30:36;7.95;;;6.15;;
51358;SDS011;37448;51.588;7.248;2023-07-28T08:32:36;7.70;;;5.70;;
51358;SDS011;37448;51.588;7.248;2023-07-28T08:34:37;8.75;;;6.18;;
51358;SDS011;37448;51.588;7.248;2023-07-28T08:36:37;8.63;;;7.10;;
51358;SDS011;37448;51.588;7.248;2023-07-28T08:38:38;9.45;;;6.38;;
51358;SDS011;37448;51.588;7.248;2023-07-28T08:40:38;10.00;;;6.35;;
51358;SDS011;37448;51.588;7.248;2023-07-28T08:42:39;8.93;;;6.45;;
51358;SDS011;37448;51.588;7.248;2023-07-28T08:44:40;9.35;;;6.72;;
51358;SDS011;37448;51.588;7.248;2023-07-28T08:46:41;10.43;;;6.43;;
51358;SDS011;37448;51.588;7.248;2023-07-28T08:48:42;9.40;;;6.43;;
51358;SDS011;37448;51.588;7.248;2023-07-28T08:50:42;9.20;;;7.00;;
51358;SDS011;37448;51.588;7.248;2023-07-28T08:52:42;9.52;;;6.88;;
51358;SDS011;37448;51.588;7.248;2023-07-28T08:54:44;10.25;;;7.50;;
51358;SDS011;37448;51.588;7.248;2023-07-28T08:56:44;11.20;;;7.28;;
51358;SDS011;37448;51.588;7.248;2023-07-28T08:58:45;10.55;;;8.05;;
51358;SDS011;37448;51.588;7.248;2023-07-28T09:00:48;12.68;;;8.48;;
51358;SDS011;37448;51.588;7.248;2023-07-28T09:02:50;15.57;;;8.80;;
51358;SDS011;37448;51.588;7.248;2023-07-28T09:04:50;13.95;;;9.50;;
51358;SDS011;37448;51.588;7.248;2023-07-28T09:06:51;17.60;;;10.98;;
51358;SDS011;37448;51.588;7.248;2023-07-28T09:08:51;13.07;;;8.52;;
51358;SDS011;37448;51.588;7.248;2023-07-28T09:12:55;12.95;;;8.88;;
51358;SDS011;37448;51.588;7.248;2023-07-28T09:14:56;11.55;;;8.27;;
51358;SDS011;37448;51.588;7.248;2023-07-28T09:17:05;10.82;;;7.75;;
51358;SDS011;37448;51.588;7.248;2023-07-28T09:19:08;11.18;;;6.75;;
51358;SDS011;37448;51.588;7.248;2023-07-28T09:21:16;8.85;;;6.47;;
51358;SDS011;37448;51.588;7.248;2023-07-28T09:23:18;8.48;;;6.18;;
51358;SDS011;37448;51.588;7.248;2023-07-28T09:25:29;9.35;;;6.35;;
51358;SDS011;37448;51.588;7.248;2023-07-28T09:27:30;8.30;;;5.55;;
51358;SDS011;37448;51.588;7.248;2023-07-28T09:29:30;7.72;;;5.68;;
51358;SDS011;37448;51.588;7.248;2023-07-28T09:31:31;7.15;;;5.72;;
51358;SDS011;37448;51.588;7.248;2023-07-28T09:33:33;9.05;;;4.55;;
51358;SDS011;37448;51.588;7.248;2023-07-28T09:35:34;5.60;;;4.00;;
51358;SDS011;37448;51.588;7.248;2023-07-28T09:37:48;5.93;;;4.55;;
51358;SDS011;37448;51.588;7.248;2023-07-28T09:39:50;6.18;;;4.40;;
51358;SDS011;37448;51.588;7.248;2023-07-28T09:41:51;4.65;;;3.53;;
51358;SDS011;37448;51.588;7.248;2023-07-28T09:43:52;4.28;;;3.33;;
51358;SDS011;37448;51.588;7.248;2023-07-28T09:45:53;5.45;;;3.38;;
51358;SDS011;37448;51.588;7.248;2023-07-28T09:47:55;4.03;;;3.03;;
51358;SDS011;37448;51.588;7.248;2023-07-28T09:49:59;3.30;;;2.85;;
51358;SDS011;37448;51.588;7.248;2023-07-28T09:52:08;4.40;;;2.90;;
51358;SDS011;37448;51.588;7.248;2023-07-28T09:54:12;2.83;;;1.92;;
51358;SDS011;37448;51.588;7.248;2023-07-28T09:56:26;3.10;;;2.55;;
51358;SDS011;37448;51.588;7.248;2023-07-28T09:58:29;3.10;;;2.42;;
51358;SDS011;37448;51.588;7.248;2023-07-28T10:00:34;2.65;;;2.45;;
51358;SDS011;37448;51.588;7.248;2023-07-28T10:02:35;2.78;;;2.42;;
51358;SDS011;37448;51.588;7.248;2023-07-28T10:04:37;2.60;;;2.28;;
51358;SDS011;37448;51.588;7.248;2023-07-28T10:06:38;2.63;;;2.42;;
51358;SDS011;37448;51.588;7.248;2023-07-28T10:08:38;3.15;;;2.35;;
51358;SDS011;37448;51.588;7.248;2023-07-28T10:10:40;2.50;;;2.28;;
51358;SDS011;37448;51.588;7.248;2023-07-28T10:14:42;3.50;;;3.17;;
51358;SDS011;37448;51.588;7.248;2023-07-28T10:16:43;3.58;;;3.28;;
51358;SDS011;37448;51.588;7.248;2023-07-28T10:18:51;3.50;;;3.20;;
51358;SDS011;37448;51.588;7.248;2023-07-28T10:20:53;3.35;;;3.05;;
51358;SDS011;37448;51.588;7.248;2023-07-28T10:22:54;3.70;;;3.40;;
51358;SDS011;37448;51.588;7.248;2023-07-28T10:25:03;3.78;;;3.38;;
51358;SDS011;37448;51.588;7.248;2023-07-28T10:27:05;4.07;;;3.67;;
51358;SDS011;37448;51.588;7.248;2023-07-28T10:29:12;3.55;;;3.08;;
51358;SDS011;37448;51.588;7.248;2023-07-28T10:31:15;4.00;;;3.05;;
51358;SDS011;37448;51.588;7.248;2023-07-28T10:35:31;3.33;;;3.03;;
51358;SDS011;37448;51.588;7.248;2023-07-28T10:37:35;3.42;;;3.08;;
51358;SDS011;37448;51.588;7.248;2023-07-28T10:39:36;3.80;;;3.30;;
51358;SDS011;37448;51.588;7.248;2023-07-28T10:41:36;3.28;;;2.97;;
51358;SDS011;37448;51.588;7.248;2023-07-28T10:43:36;3.40;;;3.10;;
51358;SDS011;37448;51.588;7.248;2023-07-28T10:45:37;3.05;;;2.75;;
51358;SDS011;37448;51.588;7.248;2023-07-28T10:47:38;5.28;;;4.00;;
51358;SDS011;37448;51.588;7.248;2023-07-28T10:49:39;4.68;;;3.88;;
51358;SDS011;37448;51.588;7.248;2023-07-28T10:51:39;4.78;;;3.72;;
51358;SDS011;37448;51.588;7.248;2023-07-28T10:53:40;3.90;;;3.50;;
51358;SDS011;37448;51.588;7.248;2023-07-28T10:55:40;4.03;;;3.05;;
51358;SDS011;37448;51.588;7.248;2023-07-28T10:57:41;3.38;;;2.97;;
51358;SDS011;37448;51.588;7.248;2023-07-28T10:59:43;3.53;;;2.60;;
51358;SDS011;37448;51.588;7.248;2023-07-28T11:01:43;3.47;;;2.65;;
51358;SDS011;37448;51.588;7.248;2023-07-28T11:03:45;3.00;;;2.58;;
51358;SDS011;37448;51.588;7.248;2023-07-28T11:05:45;3.15;;;2.75;;
51358;SDS011;37448;51.588;7.248;2023-07-28T11:07:48;3.72;;;2.42;;
51358;SDS011;37448;51.588;7.248;2023-07-28T11:09:50;2.47;;;2.13;;
51358;SDS011;37448;51.588;7.248;2023-07-28T11:11:51;3.50;;;2.60;;
51358;SDS011;37448;51.588;7.248;2023-07-28T11:13:51;2.80;;;2.28;;
51358;SDS011;37448;51.588;7.248;2023-07-28T11:15:52;4.18;;;2.28;;
51358;SDS011;37448;51.588;7.248;2023-07-28T11:17:53;48.83;;;7.90;;
51358;SDS011;37448;51.588;7.248;2023-07-28T11:19:55;2.65;;;2.45;;
51358;SDS011;37448;51.588;7.248;2023-07-28T11:21:55;6.40;;;2.63;;
51358;SDS011;37448;51.588;7.248;2023-07-28T11:23:55;2.85;;;2.15;;
51358;SDS011;37448;51.588;7.248;2023-07-28T11:25:56;3.35;;;1.90;;
51358;SDS011;37448;51.588;7.248;2023-07-28T11:27:56;2.50;;;1.83;;
51358;SDS011;37448;51.588;7.248;2023-07-28T11:29:58;4.38;;;2.10;;
51358;SDS011;37448;51.588;7.248;2023-07-28T11:32:02;2.10;;;1.70;;
51358;SDS011;37448;51.588;7.248;2023-07-28T11:34:12;2.28;;;2.08;;
51358;SDS011;37448;51.588;7.248;2023-07-28T11:36:20;2.65;;;2.45;;
51358;SDS011;37448;51.588;7.248;2023-07-28T11:38:31;2.20;;;2.00;;
51358;SDS011;37448;51.588;7.248;2023-07-28T11:40:33;5.88;;;3.00;;
51358;SDS011;37448;51.588;7.248;2023-07-28T11:42:34;2.33;;;2.05;;
51358;SDS011;37448;51.588;7.248;2023-07-28T11:44:35;2.47;;;2.22;;
51358;SDS011;37448;51.588;7.248;2023-07-28T11:46:37;2.38;;;1.90;;
51358;SDS011;37448;51.588;7.248;2023-07-28T11:50:40;1.92;;;1.70;;
51358;SDS011;37448;51.588;7.248;2023-07-28T11:52:45;2.20;;;1.77;;
51358;SDS011;37448;51.588;7.248;2023-07-28T11:54:46;1.75;;;1.60;;
51358;SDS011;37448;51.588;7.248;2023-07-28T11:56:48;2.22;;;1.55;;
51358;SDS011;37448;51.588;7.248;2023-07-28T11:58:51;2.75;;;1.90;;
51358;SDS011;37448;51.588;7.248;2023-07-28T12:00:52;2.17;;;1.63;;
51358;SDS011;37448;51.588;7.248;2023-07-28T12:03:09;3.92;;;1.33;;
51358;SDS011;37448;51.588;7.248;2023-07-28T12:05:14;1.90;;;1.80;;
51358;SDS011;37448;51.588;7.248;2023-07-28T12:07:16;1.33;;;1.20;;
51358;SDS011;37448;51.588;7.248;2023-07-28T12:09:17;1.50;;;1.35;;
51358;SDS011;37448;51.588;7.248;2023-07-28T12:11:17;4.20;;;1.55;;
51358;SDS011;37448;51.588;7.248;2023-07-28T12:13:19;1.50;;;1.40;;
51358;SDS011;37448;51.588;7.248;2023-07-28T12:15:23;1.33;;;1.20;;
51358;SDS011;37448;51.588;7.248;2023-07-28T12:17:27;1.48;;;1.33;;
51358;SDS011;37448;51.588;7.248;2023-07-28T12:19:28;1.70;;;1.50;;
51358;SDS011;37448;51.588;7.248;2023-07-28T12:21:29;1.30;;;1.13;;
51358;SDS011;37448;51.588;7.248;2023-07-28T12:23:30;1.38;;;1.27;;
51358;SDS011;37448;51.588;7.248;2023-07-28T12:25:31;1.60;;;1.50;;
51358;SDS011;37448;51.588;7.248;2023-07-28T12:27:32;1.92;;;1.50;;